createdAt,value
2023-04-26T00:01:54.967Z,100851.09
2023-04-26T00:04:29.708Z,100844.56
2023-04-26T00:07:01.152Z,100846.47
2023-04-26T00:09:31.303Z,100839.94
2023-04-26T00:12:01.737Z,100849.09
2023-04-26T00:14:31.493Z,100843.00
2023-04-26T00:17:02.051Z,100841.31
2023-04-26T00:19:34.923Z,100846.06
2023-04-26T00:22:05.838Z,100842.31
2023-04-26T00:24:35.751Z,100846.25
2023-04-26T00:27:09.612Z,100850.63
2023-04-26T00:29:39.903Z,100846.09
2023-04-26T00:32:10.369Z,100841.97
2023-04-26T00:34:42.914Z,100847.19
2023-04-26T00:37:12.955Z,100839.47
2023-04-26T00:39:43.168Z,100832.59
2023-04-26T00:42:13.391Z,100835.75
2023-04-26T00:44:43.573Z,100830.88
2023-04-26T00:47:13.755Z,100825.97
2023-04-26T00:49:46.441Z,100830.78
2023-04-26T00:52:17.196Z,100830.31
2023-04-26T00:54:47.131Z,100835.13
2023-04-26T00:57:17.308Z,100821.44
2023-04-26T00:59:47.614Z,100839.47
2023-04-26T01:02:18.373Z,100837.03
2023-04-26T01:04:49.987Z,100827.44
2023-04-26T01:07:20.694Z,100831.41
2023-04-26T01:09:52.048Z,100828.94
2023-04-26T01:12:23.520Z,100826.97
2023-04-26T01:14:54.375Z,100819.72
2023-04-26T01:17:23.915Z,100830.13
2023-04-26T01:19:55.726Z,100819.25
2023-04-26T01:22:26.131Z,100823.25
2023-04-26T01:24:59.300Z,100808.00
2023-04-26T01:27:29.325Z,100824.41
2023-04-26T01:29:59.453Z,100826.44
2023-04-26T01:32:29.239Z,100833.22
2023-04-26T01:34:58.876Z,100829.13
2023-04-26T01:37:29.076Z,100830.31
2023-04-26T01:40:00.723Z,100825.78
2023-04-26T01:42:31.009Z,100832.94
2023-04-26T01:45:00.880Z,100832.03
2023-04-26T01:47:30.611Z,100831.19
2023-04-26T01:50:00.812Z,100830.41
2023-04-26T01:52:31.068Z,100827.13
2023-04-26T01:55:02.808Z,100831.94
2023-04-26T01:57:32.501Z,100833.13
2023-04-26T02:00:02.977Z,100826.66
2023-04-26T02:02:33.134Z,100831.50
2023-04-26T02:05:03.664Z,100836.31
2023-04-26T02:07:34.173Z,100841.94
2023-04-26T02:10:06.691Z,100839.13
2023-04-26T02:12:36.435Z,100838.28
2023-04-26T02:15:07.530Z,100834.66
2023-04-26T02:17:38.208Z,100826.25
2023-04-26T02:20:10.803Z,100835.00
2023-04-26T02:22:40.796Z,100824.94
2023-04-26T02:25:13.862Z,100823.69
2023-04-26T02:27:44.396Z,100817.59
2023-04-26T02:30:15.029Z,100821.59
2023-04-26T02:32:45.368Z,100821.59
2023-04-26T02:35:15.786Z,100819.97
2023-04-26T02:37:49.463Z,100823.13
2023-04-26T02:40:22.115Z,100828.75
2023-04-26T02:42:52.363Z,100832.75
2023-04-26T02:45:22.335Z,100826.31
2023-04-26T02:47:52.509Z,100837.56
2023-04-26T02:50:22.176Z,100840.38
2023-04-26T02:52:51.801Z,100836.72
2023-04-26T02:55:24.258Z,100835.94
2023-04-26T02:57:54.772Z,100831.47
2023-04-26T03:00:25.612Z,100843.91
2023-04-26T03:02:55.976Z,100844.72
2023-04-26T03:05:26.693Z,100843.91
2023-04-26T03:07:56.405Z,100845.91
2023-04-26T03:10:28.602Z,100850.59
2023-04-26T03:12:58.349Z,100862.22
2023-04-26T03:15:27.832Z,100867.00
2023-04-26T03:17:58.527Z,100862.56
2023-04-26T03:20:28.440Z,100861.75
2023-04-26T03:22:58.076Z,100866.56
2023-04-26T03:25:30.225Z,100872.19
2023-04-26T03:27:59.907Z,100878.63
2023-04-26T03:30:30.090Z,100876.19
2023-04-26T03:33:00.435Z,100879.34
2023-04-26T03:35:30.381Z,100874.53
2023-04-26T03:38:00.029Z,100877.69
2023-04-26T03:40:31.847Z,100874.44
2023-04-26T03:43:02.196Z,100878.78
2023-04-26T03:45:32.273Z,100877.03
2023-04-26T03:48:01.984Z,100885.00
2023-04-26T03:50:32.130Z,100890.53
2023-04-26T03:53:02.587Z,100887.28
2023-04-26T03:55:34.677Z,100884.81
2023-04-26T03:58:08.373Z,100884.31
2023-04-26T04:00:40.132Z,100892.31
2023-04-26T04:03:10.464Z,100895.13
2023-04-26T04:05:41.121Z,100886.69
2023-04-26T04:08:14.550Z,100901.09
2023-04-26T04:10:47.705Z,100893.50
2023-04-26T04:13:17.909Z,100883.41
2023-04-26T04:15:48.617Z,100891.84
2023-04-26T04:18:19.066Z,100890.69
2023-04-26T04:20:49.209Z,100895.13
2023-04-26T04:23:19.503Z,100889.50
2023-04-26T04:25:52.048Z,100891.94
2023-04-26T04:28:23.025Z,100893.63
2023-04-26T04:30:53.253Z,100886.81
2023-04-26T04:33:23.644Z,100892.91
2023-04-26T04:35:55.295Z,100890.53
2023-04-26T04:38:25.112Z,100893.00
2023-04-26T04:40:57.411Z,100889.47
2023-04-26T04:43:28.373Z,100892.72
2023-04-26T04:45:58.953Z,100887.19
2023-04-26T04:48:29.201Z,100896.94
2023-04-26T04:50:58.813Z,100894.22
2023-04-26T04:53:29.036Z,100891.88
2023-04-26T04:56:01.179Z,100892.78
2023-04-26T04:58:31.237Z,100894.88
2023-04-26T05:01:03.083Z,100887.69
2023-04-26T05:03:34.251Z,100894.16
2023-04-26T05:06:05.011Z,100890.97
2023-04-26T05:08:35.221Z,100886.16
2023-04-26T05:11:06.859Z,100894.69
2023-04-26T05:13:36.917Z,100893.50
2023-04-26T05:16:07.652Z,100895.22
2023-04-26T05:18:37.690Z,100898.16
2023-04-26T05:21:08.288Z,100890.63
2023-04-26T05:23:38.225Z,100899.16
2023-04-26T05:26:15.998Z,100898.06
2023-04-26T05:28:46.510Z,100898.16
2023-04-26T05:31:16.155Z,100895.13
2023-04-26T05:33:46.262Z,100895.19
2023-04-26T05:36:16.891Z,100900.19
2023-04-26T05:38:47.084Z,100901.13
2023-04-26T05:41:18.701Z,100899.66
2023-04-26T05:43:50.766Z,100899.34
2023-04-26T05:46:21.417Z,100886.19
2023-04-26T05:48:51.615Z,100892.38
2023-04-26T05:51:21.596Z,100896.09
2023-04-26T05:53:52.187Z,100900.63
2023-04-26T05:56:24.624Z,100904.78
2023-04-26T05:58:54.736Z,100901.69
2023-04-26T06:01:24.939Z,100902.22
2023-04-26T06:04:00.677Z,100907.56
2023-04-26T06:06:32.910Z,100912.94
2023-04-26T06:09:02.993Z,100909.47
2023-04-26T06:11:34.908Z,100905.22
2023-04-26T06:14:14.294Z,100905.75
2023-04-26T06:16:50.095Z,100899.78
2023-04-26T06:19:20.185Z,100896.31
2023-04-26T06:21:52.562Z,100909.75
2023-04-26T06:24:22.565Z,100908.66
2023-04-26T06:26:54.465Z,100907.16
2023-04-26T06:29:25.009Z,100901.59
2023-04-26T06:31:54.666Z,100906.50
2023-04-26T06:34:24.696Z,100893.72
2023-04-26T06:36:54.967Z,100887.84
2023-04-26T06:39:24.714Z,100889.16
2023-04-26T06:41:56.900Z,100898.56
2023-04-26T06:44:27.170Z,100902.72
2023-04-26T06:46:57.739Z,100898.88
2023-04-26T06:49:28.163Z,100886.53
2023-04-26T06:51:58.105Z,100886.19
2023-04-26T06:54:34.598Z,100891.63
2023-04-26T06:57:08.120Z,100883.28
2023-04-26T06:59:38.079Z,100875.34
2023-04-26T07:02:09.285Z,100877.47
2023-04-26T07:04:39.748Z,100873.13
2023-04-26T07:07:13.036Z,100880.91
2023-04-26T07:09:43.916Z,100870.13
2023-04-26T07:12:16.892Z,100874.28
2023-04-26T07:14:47.054Z,100871.91
2023-04-26T07:17:17.592Z,100875.66
2023-04-26T07:19:47.589Z,100875.38
2023-04-26T07:22:17.785Z,100878.69
2023-04-26T07:24:47.915Z,100882.81
2023-04-26T07:27:19.424Z,100888.97
2023-04-26T07:29:49.668Z,100880.16
2023-04-26T07:32:19.880Z,100883.84
2023-04-26T07:34:52.271Z,100882.31
2023-04-26T07:37:22.380Z,100880.38
2023-04-26T07:39:52.703Z,100883.28
2023-04-26T07:42:24.706Z,100870.84
2023-04-26T07:44:54.978Z,100868.47
2023-04-26T07:47:24.656Z,100863.31
2023-04-26T07:49:56.231Z,100868.66
2023-04-26T07:52:26.464Z,100864.66
2023-04-26T07:54:56.383Z,100861.50
2023-04-26T07:57:28.747Z,100862.38
2023-04-26T07:59:58.918Z,100857.56
2023-04-26T08:02:43.563Z,100852.38
2023-04-26T08:05:15.840Z,100849.22
2023-04-26T08:07:46.135Z,100850.88
2023-04-26T08:10:16.563Z,100853.34
2023-04-26T08:12:48.466Z,100851.41
2023-04-26T08:15:18.373Z,100850.22
2023-04-26T08:17:48.763Z,100846.63
2023-04-26T08:20:19.964Z,100845.06
2023-04-26T08:22:50.275Z,100853.59
2023-04-26T08:25:20.523Z,100849.59
2023-04-26T08:27:52.852Z,100849.69
2023-04-26T08:30:24.169Z,100846.06
2023-04-26T08:32:54.355Z,100851.75
2023-04-26T08:35:24.637Z,100853.81
2023-04-26T08:37:54.761Z,100838.88
2023-04-26T08:40:27.135Z,100838.09
2023-04-26T08:42:58.636Z,100841.34
2023-04-26T08:45:28.846Z,100829.25
2023-04-26T08:48:09.557Z,100828.47
2023-04-26T08:50:41.778Z,100826.88
2023-04-26T08:53:15.821Z,100828.09
2023-04-26T08:55:50.684Z,100825.69
2023-04-26T08:58:23.110Z,100828.97
2023-04-26T09:00:53.753Z,100825.31
2023-04-26T09:03:27.529Z,100816.44
2023-04-26T09:05:58.219Z,100813.22
2023-04-26T09:08:28.700Z,100815.28
2023-04-26T09:10:58.849Z,100814.88
2023-04-26T09:13:32.927Z,100816.09
2023-04-26T09:16:04.997Z,100808.03
2023-04-26T09:18:34.878Z,100815.75
2023-04-26T09:21:08.070Z,100802.00
2023-04-26T09:23:38.818Z,100808.09
2023-04-26T09:26:23.104Z,100806.53
2023-04-26T09:29:15.868Z,100816.25
2023-04-26T09:31:50.002Z,100808.94
2023-04-26T09:34:20.525Z,100808.19
2023-04-26T09:36:53.190Z,100804.13
2023-04-26T09:39:40.363Z,100792.41
2023-04-26T09:42:11.630Z,100800.09
2023-04-26T09:44:43.708Z,100800.09
2023-04-26T09:47:14.749Z,100796.88
2023-04-26T09:49:51.186Z,100787.16
2023-04-26T09:52:22.221Z,100803.31
2023-04-26T09:54:54.665Z,100800.50
2023-04-26T09:57:25.568Z,100802.13
2023-04-26T09:59:57.881Z,100793.63
2023-04-26T10:02:30.540Z,100807.00
2023-04-26T10:05:02.568Z,100794.81
2023-04-26T10:07:33.986Z,100795.66
2023-04-26T10:10:05.934Z,100795.66
2023-04-26T10:12:38.258Z,100794.44
2023-04-26T10:15:13.504Z,100791.63
2023-04-26T10:17:43.748Z,100790.78
2023-04-26T10:20:17.766Z,100791.63
2023-04-26T10:22:54.763Z,100784.75
2023-04-26T10:25:38.656Z,100787.59
2023-04-26T10:28:09.428Z,100789.22
2023-04-26T10:31:00.146Z,100785.16
2023-04-26T10:33:29.938Z,100784.34
2023-04-26T10:36:14.005Z,100781.09
2023-04-26T10:39:28.665Z,100780.72
2023-04-26T10:42:27.826Z,100780.31
2023-04-26T10:45:01.230Z,100787.59
2023-04-26T10:47:37.856Z,100779.91
2023-04-26T10:50:11.022Z,100773.03
2023-04-26T10:53:07.873Z,100778.69
2023-04-26T10:55:44.567Z,100773.03
2023-04-26T10:58:31.037Z,100780.31
2023-04-26T11:01:08.819Z,100764.53
2023-04-26T11:03:42.929Z,100771.81
2023-04-26T11:06:14.300Z,100764.13
2023-04-26T11:08:44.790Z,100770.63
2023-04-26T11:11:16.147Z,100775.88
2023-04-26T11:13:47.292Z,100769.41
2023-04-26T11:16:19.544Z,100769.41
2023-04-26T11:18:51.748Z,100756.06
2023-04-26T11:21:25.128Z,100763.34
2023-04-26T11:23:58.374Z,100760.09
2023-04-26T11:26:37.077Z,100760.94
2023-04-26T11:29:10.050Z,100760.09
2023-04-26T11:31:40.155Z,100747.97
2023-04-26T11:34:12.208Z,100746.34
2023-04-26T11:36:42.303Z,100741.53
2023-04-26T11:39:14.140Z,100738.69
2023-04-26T11:41:44.518Z,100745.97
2023-04-26T11:44:15.174Z,100743.94
2023-04-26T11:46:45.902Z,100745.97
2023-04-26T11:49:19.544Z,100739.91
2023-04-26T11:51:51.815Z,100743.53
2023-04-26T11:54:35.003Z,100735.44
2023-04-26T11:57:17.219Z,100740.69
2023-04-26T11:59:48.702Z,100744.72
2023-04-26T12:02:19.503Z,100738.69
2023-04-26T12:05:01.665Z,100744.34
2023-04-26T12:07:38.347Z,100738.25
2023-04-26T12:10:19.040Z,100739.06
2023-04-26T12:12:51.982Z,100740.66
2023-04-26T12:15:26.092Z,100746.34
2023-04-26T12:17:58.974Z,100744.72
2023-04-26T12:20:36.936Z,100741.06
2023-04-26T12:23:09.806Z,100738.63
2023-04-26T12:25:42.284Z,100744.28
2023-04-26T12:28:14.689Z,100739.81
2023-04-26T12:30:45.388Z,100734.56
2023-04-26T12:33:17.676Z,100729.72
2023-04-26T12:35:50.349Z,100730.94
2023-04-26T12:38:20.800Z,100737.41
2023-04-26T12:40:51.863Z,100732.94
2023-04-26T12:43:24.482Z,100734.97
2023-04-26T12:45:55.065Z,100730.50
2023-04-26T12:48:24.727Z,100734.56
2023-04-26T12:50:56.338Z,100736.97
2023-04-26T12:53:26.561Z,100728.88
2023-04-26T12:55:56.339Z,100728.44
2023-04-26T12:58:26.598Z,100735.31
2023-04-26T13:00:56.811Z,100729.63
2023-04-26T13:03:27.941Z,100733.22
2023-04-26T13:05:58.990Z,100723.09
2023-04-26T13:08:29.180Z,100717.41
2023-04-26T13:10:59.615Z,100712.56
2023-04-26T13:13:42.423Z,100715.78
2023-04-26T13:16:14.521Z,100711.72
2023-04-26T13:18:44.104Z,100711.28
2023-04-26T13:21:15.707Z,100711.28
2023-04-26T13:23:46.715Z,100707.25
2023-04-26T13:26:18.579Z,100704.41
2023-04-26T13:28:48.814Z,100711.28
2023-04-26T13:31:19.700Z,100709.66
2023-04-26T13:33:50.368Z,100705.59
2023-04-26T13:36:22.461Z,100703.97
2023-04-26T13:38:52.453Z,100702.34
2023-04-26T13:41:22.805Z,100690.22
2023-04-26T13:43:52.617Z,100693.44
2023-04-26T13:46:22.754Z,100684.50
2023-04-26T13:48:53.002Z,100681.69
2023-04-26T13:51:27.406Z,100678.47
2023-04-26T13:53:57.113Z,100689.78
2023-04-26T13:56:27.130Z,100684.50
2023-04-26T13:58:58.432Z,100690.16
2023-04-26T14:01:29.046Z,100683.69
2023-04-26T14:03:59.565Z,100688.13
2023-04-26T14:06:33.322Z,100684.47
2023-04-26T14:09:05.794Z,100691.34
2023-04-26T14:11:36.111Z,100689.72
2023-04-26T14:14:06.755Z,100695.78
2023-04-26T14:16:37.191Z,100690.53
2023-04-26T14:19:07.570Z,100684.44
2023-04-26T14:21:39.114Z,100686.44
2023-04-26T14:24:09.977Z,100686.03
2023-04-26T14:26:39.638Z,100681.97
2023-04-26T14:29:09.605Z,100679.53
2023-04-26T14:31:40.115Z,100679.13
2023-04-26T14:34:10.620Z,100674.66
2023-04-26T14:36:42.253Z,100677.88
2023-04-26T14:39:12.710Z,100671.00
2023-04-26T14:41:42.851Z,100674.19
2023-04-26T14:44:13.223Z,100675.38
2023-04-26T14:46:43.564Z,100672.16
2023-04-26T14:49:13.325Z,100673.72
2023-04-26T14:51:45.215Z,100672.94
2023-04-26T14:54:15.858Z,100662.41
2023-04-26T14:56:46.050Z,100675.75
2023-04-26T14:59:15.700Z,100679.34
2023-04-26T15:01:45.767Z,100677.72
2023-04-26T15:04:15.697Z,100678.13
2023-04-26T15:06:48.106Z,100676.50
2023-04-26T15:09:19.277Z,100667.22
2023-04-26T15:11:49.081Z,100669.22
2023-04-26T15:14:19.293Z,100663.13
2023-04-26T15:16:49.340Z,100666.34
2023-04-26T15:19:19.562Z,100661.09
2023-04-26T15:21:51.810Z,100656.22
2023-04-26T15:24:22.511Z,100660.25
2023-04-26T15:26:52.757Z,100658.63
2023-04-26T15:29:22.872Z,100660.66
2023-04-26T15:31:53.299Z,100661.84
2023-04-26T15:34:24.866Z,100665.88
2023-04-26T15:36:57.011Z,100655.78
2023-04-26T15:39:27.312Z,100663.81
2023-04-26T15:41:58.143Z,100659.38
2023-04-26T15:44:28.166Z,100658.94
2023-04-26T15:46:58.378Z,100666.63
2023-04-26T15:49:28.806Z,100658.53
2023-04-26T15:52:01.183Z,100666.19
2023-04-26T15:54:30.841Z,100676.72
2023-04-26T15:57:00.771Z,100673.44
2023-04-26T15:59:31.077Z,100675.84
2023-04-26T16:02:01.318Z,100670.59
2023-04-26T16:04:31.624Z,100678.25
2023-04-26T16:07:03.438Z,100677.84
2023-04-26T16:09:33.575Z,100683.06
2023-04-26T16:12:04.154Z,100683.44
2023-04-26T16:14:36.745Z,100679.03
2023-04-26T16:17:07.128Z,100681.41
2023-04-26T16:19:36.838Z,100681.78
2023-04-26T16:22:08.955Z,100679.38
2023-04-26T16:24:38.582Z,100686.22
2023-04-26T16:27:09.056Z,100686.59
2023-04-26T16:29:39.323Z,100684.94
2023-04-26T16:32:08.937Z,100693.00
2023-04-26T16:34:38.656Z,100700.69
2023-04-26T16:37:10.884Z,100706.69
2023-04-26T16:39:40.584Z,100711.97
2023-04-26T16:42:10.827Z,100707.50
2023-04-26T16:44:41.389Z,100713.53
2023-04-26T16:47:11.926Z,100706.63
2023-04-26T16:49:41.739Z,100709.47
2023-04-26T16:52:13.958Z,100706.22
2023-04-26T16:54:44.163Z,100708.59
2023-04-26T16:57:14.542Z,100706.19
2023-04-26T16:59:45.433Z,100707.38
2023-04-26T17:02:16.461Z,100718.25
2023-04-26T17:04:47.978Z,100711.78
2023-04-26T17:07:20.462Z,100717.84
2023-04-26T17:09:54.180Z,100717.41
2023-04-26T17:12:24.204Z,100709.28
2023-04-26T17:14:54.408Z,100718.16
2023-04-26T17:17:24.321Z,100712.09
2023-04-26T17:19:54.380Z,100716.94
2023-04-26T17:22:27.249Z,100712.88
2023-04-26T17:24:57.387Z,100714.06
2023-04-26T17:27:27.547Z,100708.00
2023-04-26T17:29:57.977Z,100708.78
2023-04-26T17:32:28.696Z,100712.81
2023-04-26T17:34:58.815Z,100710.78
2023-04-26T17:37:30.943Z,100720.06
2023-04-26T17:40:00.569Z,100718.03
2023-04-26T17:42:30.312Z,100722.03
2023-04-26T17:45:01.503Z,100713.94
2023-04-26T17:47:31.590Z,100711.50
2023-04-26T17:50:02.113Z,100705.03
2023-04-26T17:52:33.772Z,100700.16
2023-04-26T17:55:05.437Z,100709.00
2023-04-26T17:57:35.691Z,100723.53
2023-04-26T18:00:06.914Z,100726.34
2023-04-26T18:02:38.687Z,100725.13
2023-04-26T18:05:10.770Z,100723.47
2023-04-26T18:07:43.477Z,100732.34
2023-04-26T18:10:13.547Z,100733.53
2023-04-26T18:12:43.337Z,100742.34
2023-04-26T18:15:14.109Z,100743.53
2023-04-26T18:17:44.144Z,100756.06
2023-04-26T18:20:15.622Z,100753.59
2023-04-26T18:22:47.720Z,100759.63
2023-04-26T18:25:17.940Z,100760.03
2023-04-26T18:27:49.322Z,100752.75
2023-04-26T18:30:19.672Z,100764.41
2023-04-26T18:32:49.734Z,100761.97
2023-04-26T18:35:19.739Z,100766.00
2023-04-26T18:37:51.886Z,100770.00
2023-04-26T18:40:22.295Z,100759.91
2023-04-26T18:42:52.590Z,100768.78
2023-04-26T18:45:22.206Z,100769.16
2023-04-26T18:47:55.096Z,100761.88
2023-04-26T18:50:24.898Z,100761.81
2023-04-26T18:52:57.242Z,100765.84
2023-04-26T18:55:27.971Z,100764.22
2023-04-26T18:57:58.487Z,100770.22
2023-04-26T19:00:28.905Z,100771.44
2023-04-26T19:02:59.301Z,100772.66
2023-04-26T19:05:29.692Z,100770.19
2023-04-26T19:08:02.534Z,100764.94
2023-04-26T19:10:32.506Z,100775.41
2023-04-26T19:13:02.957Z,100770.13
2023-04-26T19:15:33.213Z,100773.34
2023-04-26T19:18:03.077Z,100777.38
2023-04-26T19:20:33.282Z,100775.75
2023-04-26T19:23:05.362Z,100781.78
2023-04-26T19:25:35.704Z,100782.97
2023-04-26T19:28:05.743Z,100785.78
2023-04-26T19:30:35.952Z,100787.34
2023-04-26T19:33:06.350Z,100784.91
2023-04-26T19:35:36.850Z,100783.28
2023-04-26T19:38:08.409Z,100791.28
2023-04-26T19:40:39.180Z,100786.03
2023-04-26T19:43:09.202Z,100787.22
2023-04-26T19:45:41.264Z,100784.81
2023-04-26T19:48:11.222Z,100783.97
2023-04-26T19:50:42.871Z,100785.16
2023-04-26T19:53:17.086Z,100779.09
2023-04-26T19:55:47.022Z,100787.13
2023-04-26T19:58:17.469Z,100777.03
2023-04-26T20:00:47.831Z,100775.78
2023-04-26T20:03:18.227Z,100772.97
2023-04-26T20:05:48.485Z,100778.97
2023-04-26T20:08:20.635Z,100780.16
2023-04-26T20:10:50.952Z,100778.56
2023-04-26T20:13:21.098Z,100774.06
2023-04-26T20:15:51.191Z,100776.06
2023-04-26T20:18:21.714Z,100772.44
2023-04-26T20:20:52.806Z,100772.81
2023-04-26T20:23:24.942Z,100767.16
2023-04-26T20:25:55.257Z,100769.56
2023-04-26T20:28:26.121Z,100775.22
2023-04-26T20:30:56.000Z,100775.56
2023-04-26T20:33:25.618Z,100768.69
2023-04-26T20:35:55.815Z,100761.41
2023-04-26T20:38:27.740Z,100773.88
2023-04-26T20:40:57.705Z,100778.72
2023-04-26T20:43:27.687Z,100777.47
2023-04-26T20:45:57.944Z,100778.22
2023-04-26T20:48:28.035Z,100775.75
2023-04-26T20:50:59.254Z,100774.53
2023-04-26T20:53:31.685Z,100785.00
2023-04-26T20:56:01.789Z,100782.13
2023-04-26T20:58:32.149Z,100781.69
2023-04-26T21:01:01.858Z,100780.00
2023-04-26T21:03:32.816Z,100779.09
2023-04-26T21:06:03.134Z,100784.69
2023-04-26T21:08:36.485Z,100776.53
2023-04-26T21:11:06.758Z,100776.09
2023-04-26T21:13:36.738Z,100781.69
2023-04-26T21:16:07.890Z,100784.84
2023-04-26T21:18:37.825Z,100778.41
2023-04-26T21:21:07.443Z,100776.78
2023-04-26T21:23:39.956Z,100774.75
2023-04-26T21:26:10.354Z,100777.59
2023-04-26T21:28:40.309Z,100776.78
2023-04-26T21:31:10.506Z,100773.97
2023-04-26T21:33:40.215Z,100778.78
2023-04-26T21:36:10.558Z,100771.09
2023-04-26T21:38:43.195Z,100767.81
2023-04-26T21:41:13.078Z,100771.81
2023-04-26T21:43:43.377Z,100772.53
2023-04-26T21:46:13.644Z,100766.91
2023-04-26T21:48:43.849Z,100772.91
2023-04-26T21:51:14.029Z,100770.94
2023-04-26T21:53:45.664Z,100767.28
2023-04-26T21:56:15.998Z,100762.47
2023-04-26T21:58:46.669Z,100760.00
2023-04-26T22:01:17.994Z,100758.03
2023-04-26T22:03:48.210Z,100755.56
2023-04-26T22:06:18.450Z,100767.22
2023-04-26T22:08:57.440Z,100753.13
2023-04-26T22:11:27.544Z,100750.69
2023-04-26T22:13:57.854Z,100757.94
2023-04-26T22:16:28.005Z,100754.31
2023-04-26T22:18:58.025Z,100746.66
2023-04-26T22:21:28.892Z,100755.94
2023-04-26T22:24:01.475Z,100742.66
2023-04-26T22:26:31.775Z,100734.59
2023-04-26T22:29:01.484Z,100743.03
2023-04-26T22:31:31.909Z,100728.16
2023-04-26T22:34:02.269Z,100730.13
2023-04-26T22:36:32.912Z,100734.97
2023-04-26T22:39:05.140Z,100736.97
2023-04-26T22:41:35.378Z,100731.72
2023-04-26T22:44:05.102Z,100725.25
2023-04-26T22:46:35.095Z,100716.78
2023-04-26T22:49:05.306Z,100716.00
2023-04-26T22:51:35.553Z,100712.38
2023-04-26T22:54:08.033Z,100718.81
2023-04-26T22:56:38.234Z,100705.09
2023-04-26T22:59:08.646Z,100696.66
2023-04-26T23:01:39.085Z,100698.63
2023-04-26T23:04:09.368Z,100699.03
2023-04-26T23:06:39.512Z,100696.19
2023-04-26T23:09:11.980Z,100689.72
2023-04-26T23:11:42.366Z,100685.28
2023-04-26T23:14:12.867Z,100683.31
2023-04-26T23:16:43.250Z,100678.84
2023-04-26T23:19:13.478Z,100671.59
2023-04-26T23:21:43.641Z,100662.34
2023-04-26T23:24:16.345Z,100668.31
2023-04-26T23:26:46.427Z,100661.88
2023-04-26T23:29:16.953Z,100656.63
2023-04-26T23:31:48.024Z,100653.38
2023-04-26T23:34:17.665Z,100642.06
2023-04-26T23:36:47.659Z,100640.41
2023-04-26T23:39:19.970Z,100646.41
2023-04-26T23:41:50.219Z,100634.72
2023-04-26T23:44:20.414Z,100641.53
2023-04-26T23:46:50.846Z,100632.66
2023-04-26T23:49:20.701Z,100639.47
2023-04-26T23:51:50.770Z,100630.56
2023-04-26T23:54:22.500Z,100632.59
2023-04-26T23:56:52.583Z,100628.94
2023-04-26T23:59:23.547Z,100627.31
